createdAt,value
2023-01-27T00:43:25.803Z,-0.84
2023-01-27T00:51:20.341Z,-0.89
2023-01-27T00:52:49.203Z,-0.88
2023-01-27T00:56:21.127Z,-0.90
2023-01-27T01:04:06.161Z,-0.90
2023-01-27T01:07:37.552Z,-0.85
2023-01-27T01:19:18.482Z,-0.85
2023-01-27T01:36:44.413Z,-0.82
2023-01-27T01:39:36.117Z,-0.83
2023-01-27T01:49:49.032Z,-0.85
2023-01-27T01:52:25.132Z,-0.83
2023-01-27T03:20:30.226Z,-0.80
2023-01-27T03:22:57.466Z,-0.75
2023-01-27T03:36:30.202Z,-0.71
2023-01-27T03:56:29.865Z,-0.64
2023-01-27T05:15:22.307Z,-0.55
2023-01-27T05:17:50.111Z,-0.49
2023-01-27T05:24:38.404Z,-0.48
2023-01-27T05:31:46.298Z,-0.45
2023-01-27T05:34:44.296Z,-0.52
2023-01-27T05:41:44.721Z,-0.47
2023-01-27T05:48:11.919Z,-0.40
2023-01-27T05:50:59.015Z,-0.39
2023-01-27T05:53:50.577Z,-0.36
2023-01-27T05:56:23.236Z,-0.36
2023-01-27T05:58:57.592Z,-0.31
2023-01-27T06:01:29.737Z,-0.29
2023-01-27T06:03:58.368Z,-0.26
2023-01-27T06:06:29.909Z,-0.22
2023-01-27T06:09:04.234Z,-0.15
2023-01-27T06:11:32.544Z,-0.14
2023-01-27T06:14:02.956Z,-0.16
2023-01-27T06:16:29.942Z,-0.11
2023-01-27T06:18:57.053Z,-0.07
2023-01-27T06:21:24.114Z,-0.17
2023-01-27T06:23:53.803Z,-0.18
2023-01-27T06:26:24.756Z,-0.12
2023-01-27T06:29:14.357Z,-0.20
2023-01-27T06:32:42.190Z,-0.32
2023-01-27T06:35:42.750Z,-0.32
2023-01-27T06:42:58.520Z,-0.35
2023-01-27T06:45:29.189Z,-0.40
2023-01-27T06:48:17.058Z,-0.28
2023-01-27T06:50:44.596Z,-0.22
2023-01-27T06:53:11.342Z,-0.22
2023-01-27T06:55:41.734Z,-0.20
2023-01-27T06:58:09.596Z,-0.17
2023-01-27T07:00:36.949Z,-0.19
2023-01-27T07:03:04.137Z,-0.18
2023-01-27T07:05:31.561Z,-0.13
2023-01-27T07:07:58.486Z,-0.11
2023-01-27T07:10:25.838Z,-0.13
2023-01-27T07:12:52.545Z,-0.09
2023-01-27T07:15:26.454Z,-0.02
2023-01-27T07:17:53.325Z,0.07
2023-01-27T07:20:21.117Z,0.05
2023-01-27T07:22:47.828Z,0.03
2023-01-27T07:25:14.553Z,0.04
2023-01-27T07:27:41.201Z,0.07
2023-01-27T07:30:08.675Z,0.11
2023-01-27T07:32:35.307Z,0.10
2023-01-27T07:35:01.972Z,0.10
2023-01-27T07:37:28.641Z,0.12
2023-01-27T07:39:55.322Z,0.16
2023-01-27T07:42:22.281Z,0.14
2023-01-27T07:44:50.611Z,0.14
2023-01-27T07:47:17.877Z,0.18
2023-01-27T07:49:45.742Z,0.21
2023-01-27T07:52:13.945Z,0.22
2023-01-27T07:54:41.281Z,0.28
2023-01-27T07:57:09.392Z,0.30
2023-01-27T07:59:37.287Z,0.33
2023-01-27T08:02:06.180Z,0.33
2023-01-27T08:04:40.223Z,0.36
2023-01-27T08:07:18.062Z,0.38
2023-01-27T08:09:50.069Z,0.43
2023-01-27T08:12:40.633Z,0.43
2023-01-27T08:22:31.149Z,0.61
2023-01-27T08:25:31.352Z,0.64
2023-01-27T08:39:11.665Z,0.83
2023-01-27T08:52:37.840Z,0.90
2023-01-27T08:55:19.140Z,0.95
2023-01-27T08:57:45.885Z,1.00
2023-01-27T09:00:13.798Z,0.99
2023-01-27T09:02:40.843Z,0.97
2023-01-27T09:05:07.700Z,1.00
2023-01-27T09:07:37.254Z,1.01
2023-01-27T09:10:19.912Z,0.95
2023-01-27T09:12:49.749Z,0.97
2023-01-27T09:15:19.343Z,0.99
2023-01-27T09:17:48.333Z,1.09
2023-01-27T09:20:16.182Z,1.05
2023-01-27T09:22:43.326Z,1.07
2023-01-27T09:25:14.788Z,1.09
2023-01-27T09:27:41.537Z,1.12
2023-01-27T09:30:10.568Z,1.15
2023-01-27T09:32:38.923Z,1.19
2023-01-27T09:35:06.548Z,1.13
2023-01-27T09:37:39.847Z,1.11
2023-01-27T09:40:16.410Z,1.10
2023-01-27T09:43:15.516Z,1.07
2023-01-27T09:46:04.878Z,1.11
2023-01-27T09:48:52.316Z,1.14
2023-01-27T09:51:48.887Z,1.21
2023-01-27T09:54:21.677Z,1.25
2023-01-27T09:57:00.662Z,1.26
2023-01-27T09:59:48.672Z,1.28
2023-01-27T10:02:52.602Z,1.32
2023-01-27T10:05:57.259Z,1.39
2023-01-27T10:09:05.550Z,1.40
2023-01-27T10:11:53.343Z,1.42
2023-01-27T10:14:29.253Z,1.43
2023-01-27T10:17:17.767Z,1.50
2023-01-27T10:20:14.118Z,1.44
2023-01-27T10:22:50.408Z,1.42
2023-01-27T10:25:48.538Z,1.43
2023-01-27T10:28:17.988Z,1.44
2023-01-27T10:31:02.616Z,1.46
2023-01-27T10:33:52.769Z,1.48
2023-01-27T10:36:31.164Z,1.44
2023-01-27T10:39:10.706Z,1.43
2023-01-27T10:42:01.632Z,1.53
2023-01-27T10:44:33.003Z,1.46
2023-01-27T10:47:09.926Z,1.42
2023-01-27T10:49:45.535Z,1.37
2023-01-27T10:52:35.901Z,1.40
2023-01-27T10:55:25.742Z,1.41
2023-01-27T10:58:00.242Z,1.38
2023-01-27T11:03:45.067Z,1.35
2023-01-27T11:06:17.128Z,1.34
2023-01-27T11:08:47.092Z,1.31
2023-01-27T11:11:50.379Z,1.31
2023-01-27T11:14:22.685Z,1.31
2023-01-27T11:16:52.546Z,1.28
2023-01-27T11:19:35.330Z,1.27
2023-01-27T11:22:08.375Z,1.25
2023-01-27T11:24:45.329Z,1.24
2023-01-27T11:27:24.237Z,1.26
2023-01-27T11:30:04.681Z,1.26
2023-01-27T11:32:57.893Z,1.29
2023-01-27T11:35:24.838Z,1.36
2023-01-27T11:38:06.328Z,1.32
2023-01-27T11:40:38.693Z,1.33
2023-01-27T11:43:05.897Z,1.37
2023-01-27T11:45:35.669Z,1.32
2023-01-27T11:48:03.508Z,1.35
2023-01-27T11:50:34.287Z,1.38
2023-01-27T11:53:06.552Z,1.31
2023-01-27T11:55:39.712Z,1.30
2023-01-27T11:58:14.976Z,1.33
2023-01-27T12:00:47.056Z,1.29
2023-01-27T12:03:27.393Z,1.31
2023-01-27T12:05:55.983Z,1.31
2023-01-27T12:08:36.452Z,1.30
2023-01-27T12:11:24.444Z,1.28
2023-01-27T12:14:03.189Z,1.29
2023-01-27T12:16:42.750Z,1.25
2023-01-27T12:19:27.370Z,1.27
2023-01-27T12:21:57.113Z,1.26
2023-01-27T12:24:28.718Z,1.24
2023-01-27T12:26:56.389Z,1.21
2023-01-27T12:29:30.658Z,1.21
2023-01-27T12:31:58.690Z,1.22
2023-01-27T12:34:30.151Z,1.24
2023-01-27T12:36:57.881Z,1.20
2023-01-27T12:39:37.283Z,1.25
2023-01-27T12:42:04.192Z,1.23
2023-01-27T12:44:42.577Z,1.24
2023-01-27T12:47:41.728Z,1.23
2023-01-27T12:50:21.074Z,1.22
2023-01-27T12:53:14.908Z,1.21
2023-01-27T12:56:00.184Z,1.21
2023-01-27T12:58:39.784Z,1.17
2023-01-27T13:01:31.070Z,1.14
2023-01-27T13:04:00.016Z,1.15
2023-01-27T13:06:44.720Z,1.18
2023-01-27T13:09:29.938Z,1.17
2023-01-27T13:11:58.935Z,1.20
2023-01-27T13:14:30.162Z,1.19
2023-01-27T13:16:59.164Z,1.20
2023-01-27T13:19:34.754Z,1.21
2023-01-27T13:22:03.368Z,1.23
2023-01-27T13:24:41.966Z,1.23
2023-01-27T13:27:14.442Z,1.26
2023-01-27T13:29:44.460Z,1.27
2023-01-27T13:32:18.648Z,1.27
2023-01-27T13:35:23.078Z,1.31
2023-01-27T13:38:18.489Z,1.31
2023-01-27T13:40:46.248Z,1.38
2023-01-27T13:43:24.291Z,1.37
2023-01-27T13:46:00.430Z,1.39
2023-01-27T13:48:32.169Z,1.43
2023-01-27T13:51:04.733Z,1.45
2023-01-27T13:53:31.481Z,1.45
2023-01-27T13:56:20.127Z,1.49
2023-01-27T13:59:14.739Z,1.50
2023-01-27T14:02:09.085Z,1.56
2023-01-27T14:04:55.352Z,1.59
2023-01-27T14:07:59.805Z,1.62
2023-01-27T14:10:53.815Z,1.64
2023-01-27T14:13:49.927Z,1.71
2023-01-27T14:16:25.641Z,1.61
2023-01-27T14:19:00.748Z,1.62
2023-01-27T14:21:42.634Z,1.64
2023-01-27T14:24:34.880Z,1.72
2023-01-27T14:27:01.555Z,1.72
2023-01-27T14:29:32.577Z,1.74
2023-01-27T14:32:27.673Z,1.70
2023-01-27T14:35:28.992Z,1.76
2023-01-27T14:38:21.836Z,1.69
2023-01-27T14:41:06.820Z,1.70
2023-01-27T14:43:43.107Z,1.65
2023-01-27T14:46:18.197Z,1.64
2023-01-27T14:49:03.672Z,1.63
2023-01-27T14:51:35.294Z,1.57
2023-01-27T14:54:12.066Z,1.54
2023-01-27T14:57:22.063Z,1.53
2023-01-27T15:00:05.030Z,1.58
2023-01-27T15:02:48.464Z,1.58
2023-01-27T15:05:29.848Z,1.55
2023-01-27T15:08:03.461Z,1.50
2023-01-27T15:10:31.838Z,1.48
2023-01-27T15:13:11.304Z,1.47
2023-01-27T15:15:50.173Z,1.44
2023-01-27T15:18:48.477Z,1.45
2023-01-27T15:21:24.572Z,1.46
2023-01-27T15:24:03.570Z,1.45
2023-01-27T15:26:31.356Z,1.38
2023-01-27T15:28:58.571Z,1.42
2023-01-27T15:31:27.673Z,1.41
2023-01-27T15:34:14.496Z,1.40
2023-01-27T15:37:10.382Z,1.38
2023-01-27T15:39:59.296Z,1.39
2023-01-27T15:42:51.442Z,1.38
2023-01-27T15:45:36.389Z,1.38
2023-01-27T15:48:14.492Z,1.39
2023-01-27T15:50:49.612Z,1.34
2023-01-27T15:53:39.191Z,1.33
2023-01-27T15:56:06.151Z,1.31
2023-01-27T15:58:40.772Z,1.35
2023-01-27T16:01:09.918Z,1.32
2023-01-27T16:03:39.021Z,1.32
2023-01-27T16:06:12.390Z,1.30
2023-01-27T16:08:45.333Z,1.28
2023-01-27T16:11:28.323Z,1.27
2023-01-27T16:14:13.846Z,1.24
2023-01-27T16:16:50.142Z,1.24
2023-01-27T16:19:31.140Z,1.23
2023-01-27T16:22:07.257Z,1.17
2023-01-27T16:24:51.293Z,1.15
2023-01-27T16:27:44.397Z,1.13
2023-01-27T16:30:19.572Z,1.10
2023-01-27T16:33:04.359Z,1.10
2023-01-27T16:35:42.659Z,1.06
2023-01-27T16:38:28.712Z,1.04
2023-01-27T16:40:57.710Z,1.06
2023-01-27T16:43:31.905Z,1.02
2023-01-27T16:46:00.724Z,0.97
2023-01-27T16:48:41.819Z,0.92
2023-01-27T16:51:23.959Z,0.91
2023-01-27T16:53:53.100Z,0.91
2023-01-27T16:56:28.494Z,0.88
2023-01-27T16:59:00.791Z,0.85
2023-01-27T17:01:38.426Z,0.81
2023-01-27T17:04:19.197Z,0.79
2023-01-27T17:06:46.612Z,0.72
2023-01-27T17:09:25.038Z,0.69
2023-01-27T17:11:53.729Z,0.68
2023-01-27T17:14:30.275Z,0.61
2023-01-27T17:17:05.290Z,0.55
2023-01-27T17:19:36.384Z,0.47
2023-01-27T17:22:11.814Z,0.39
2023-01-27T17:24:49.986Z,0.29
2023-01-27T17:27:31.527Z,0.26
2023-01-27T17:30:06.521Z,0.15
2023-01-27T17:32:37.866Z,0.18
2023-01-27T17:35:06.583Z,0.14
2023-01-27T17:37:33.483Z,0.10
2023-01-27T17:40:12.195Z,0.06
2023-01-27T17:42:38.995Z,-0.05
2023-01-27T17:45:27.093Z,-0.06
2023-01-27T17:47:54.472Z,-0.13
2023-01-27T17:50:23.786Z,-0.19
2023-01-27T17:52:52.695Z,-0.21
2023-01-27T17:55:25.287Z,-0.28
2023-01-27T17:58:00.395Z,-0.30
2023-01-27T18:00:35.667Z,-0.28
2023-01-27T18:03:20.177Z,-0.29
2023-01-27T18:05:50.003Z,-0.31
2023-01-27T18:08:18.946Z,-0.35
2023-01-27T18:10:46.247Z,-0.21
2023-01-27T18:13:16.015Z,-0.20
2023-01-27T18:15:48.932Z,-0.24
2023-01-27T18:18:16.705Z,-0.23
2023-01-27T18:20:43.423Z,-0.28
2023-01-27T18:23:17.302Z,-0.13
2023-01-27T18:25:51.482Z,-0.22
2023-01-27T18:28:19.295Z,-0.19
2023-01-27T18:30:48.994Z,-0.19
2023-01-27T18:33:17.319Z,-0.24
2023-01-27T18:35:46.678Z,-0.21
2023-01-27T18:38:25.600Z,-0.15
2023-01-27T18:40:52.527Z,-0.14
2023-01-27T18:43:19.288Z,-0.15
2023-01-27T18:45:47.358Z,-0.14
2023-01-27T18:48:17.626Z,-0.06
2023-01-27T18:50:46.579Z,-0.13
2023-01-27T18:53:15.691Z,-0.09
2023-01-27T18:55:42.781Z,-0.10
2023-01-27T18:58:12.952Z,-0.09
2023-01-27T19:00:48.314Z,-0.05
2023-01-27T19:03:19.413Z,-0.06
2023-01-27T19:05:47.350Z,-0.06
2023-01-27T19:08:22.556Z,-0.25
2023-01-27T19:10:49.484Z,-0.31
2023-01-27T19:13:16.895Z,-0.37
2023-01-27T19:15:50.134Z,-0.46
2023-01-27T19:18:25.036Z,-0.56
2023-01-27T19:20:52.962Z,-0.60
2023-01-27T19:23:22.129Z,-0.57
2023-01-27T19:25:54.250Z,-0.66
2023-01-27T19:28:27.410Z,-0.70
2023-01-27T19:30:54.119Z,-0.74
2023-01-27T19:33:23.242Z,-0.66
2023-01-27T19:36:02.051Z,-0.69
2023-01-27T19:38:29.692Z,-0.67
2023-01-27T19:40:56.679Z,-0.73
2023-01-27T19:43:23.371Z,-0.75
2023-01-27T19:45:50.315Z,-0.74
2023-01-27T19:48:21.010Z,-0.72
2023-01-27T19:50:48.246Z,-0.69
2023-01-27T19:53:16.082Z,-0.78
2023-01-27T19:55:43.015Z,-0.73
2023-01-27T19:58:26.464Z,-0.75
2023-01-27T20:00:54.727Z,-0.71
2023-01-27T20:03:22.126Z,-0.76
2023-01-27T20:05:49.087Z,-0.75
2023-01-27T20:08:18.922Z,-0.73
2023-01-27T20:10:45.905Z,-0.76
2023-01-27T20:13:15.159Z,-0.79
2023-01-27T20:15:42.338Z,-0.80
2023-01-27T20:18:12.989Z,-0.81
2023-01-27T20:20:39.614Z,-0.84
2023-01-27T20:23:06.480Z,-0.86
2023-01-27T20:25:34.284Z,-0.86
2023-01-27T20:28:01.778Z,-0.92
2023-01-27T20:30:32.521Z,-0.89
2023-01-27T20:33:00.826Z,-0.93
2023-01-27T20:35:28.168Z,-0.95
2023-01-27T20:37:55.935Z,-0.99
2023-01-27T20:40:26.426Z,-0.96
2023-01-27T20:42:53.283Z,-1.05
2023-01-27T20:45:20.924Z,-1.05
2023-01-27T20:47:52.169Z,-1.07
2023-01-27T20:50:19.364Z,-1.11
2023-01-27T20:52:48.381Z,-1.13
2023-01-27T20:55:16.304Z,-1.18
2023-01-27T20:57:43.295Z,-1.27
2023-01-27T21:00:17.139Z,-1.26
2023-01-27T21:02:43.841Z,-1.30
2023-01-27T21:05:10.612Z,-1.25
2023-01-27T21:07:37.332Z,-1.24
2023-01-27T21:10:06.081Z,-1.31
2023-01-27T21:13:12.252Z,-1.38
2023-01-27T21:16:21.449Z,-1.46
2023-01-27T21:19:11.155Z,-1.47
2023-01-27T21:24:51.391Z,-1.36
2023-01-27T21:27:27.924Z,-1.45
2023-01-27T21:30:12.187Z,-1.39
2023-01-27T21:32:51.579Z,-1.48
2023-01-27T21:35:40.197Z,-1.39
2023-01-27T21:40:59.311Z,-1.46
2023-01-27T21:43:56.199Z,-1.47
2023-01-27T21:46:35.865Z,-1.44
2023-01-27T21:49:37.803Z,-1.27
2023-01-27T21:56:33.965Z,-1.05
2023-01-27T21:59:33.404Z,-1.01
2023-01-27T22:02:15.445Z,-0.95
2023-01-27T22:04:47.684Z,-0.96
2023-01-27T22:07:27.640Z,-0.90
2023-01-27T22:10:10.822Z,-0.87
2023-01-27T22:12:38.823Z,-0.89
2023-01-27T22:15:11.901Z,-0.92
2023-01-27T22:17:42.534Z,-0.89
2023-01-27T22:20:24.456Z,-0.87
2023-01-27T22:22:53.736Z,-0.88
2023-01-27T22:25:34.142Z,-0.86
2023-01-27T22:28:27.728Z,-0.88
2023-01-27T22:31:07.129Z,-0.97
2023-01-27T22:33:35.631Z,-1.10
2023-01-27T22:36:04.613Z,-1.11
2023-01-27T22:38:44.428Z,-1.13
2023-01-27T22:41:14.382Z,-1.13
2023-01-27T22:43:46.912Z,-1.01
2023-01-27T22:46:13.880Z,-0.99
2023-01-27T22:48:54.202Z,-1.01
2023-01-27T22:51:27.956Z,-1.06
2023-01-27T22:53:55.129Z,-1.11
2023-01-27T22:56:24.473Z,-1.24
2023-01-27T22:58:51.372Z,-1.42
2023-01-27T23:01:21.049Z,-1.31
2023-01-27T23:03:48.280Z,-1.25
2023-01-27T23:06:17.590Z,-1.25
2023-01-27T23:08:48.168Z,-1.08
2023-01-27T23:11:15.444Z,-1.04
2023-01-27T23:13:42.786Z,-1.05
2023-01-27T23:16:23.809Z,-1.28
2023-01-27T23:18:56.815Z,-1.33
2023-01-27T23:21:26.345Z,-1.33
2023-01-27T23:23:53.261Z,-1.20
2023-01-27T23:26:20.271Z,-1.14
2023-01-27T23:28:49.995Z,-1.13
2023-01-27T23:31:17.721Z,-1.15
2023-01-27T23:33:44.927Z,-1.10
2023-01-27T23:36:12.120Z,-1.12
2023-01-27T23:38:43.381Z,-1.17
2023-01-27T23:41:19.393Z,-1.14
2023-01-27T23:43:53.511Z,-1.22
2023-01-27T23:46:20.513Z,-1.20
2023-01-27T23:48:51.618Z,-1.22
2023-01-27T23:51:20.252Z,-1.30
2023-01-27T23:53:50.035Z,-1.25
2023-01-27T23:56:22.479Z,-1.28
2023-01-27T23:58:52.378Z,-1.29
